createdAt,value
2022-09-27T00:00:36.091Z,89.044189
2022-09-27T00:01:45.827Z,89.556885
2022-09-27T00:02:54.520Z,89.245605
2022-09-27T00:04:04.135Z,88.94043
2022-09-27T00:05:12.804Z,89.044189
2022-09-27T00:06:22.479Z,88.94043
2022-09-27T00:07:31.123Z,89.245605
2022-09-27T00:08:39.836Z,89.044189
2022-09-27T00:09:49.480Z,89.044189
2022-09-27T00:10:58.170Z,89.245605
2022-09-27T00:12:06.852Z,89.556885
2022-09-27T00:13:15.510Z,89.758301
2022-09-27T00:14:25.214Z,89.556885
2022-09-27T00:15:34.941Z,89.654541
2022-09-27T00:16:42.546Z,89.758301
2022-09-27T00:17:50.235Z,90.063477
2022-09-27T00:18:59.927Z,90.167236
2022-09-27T00:20:09.589Z,90.167236
2022-09-27T00:21:19.275Z,90.881348
2022-09-27T00:22:28.965Z,90.679932
2022-09-27T00:23:38.622Z,90.576172
2022-09-27T00:24:48.330Z,90.881348
2022-09-27T00:25:58.022Z,91.394043
2022-09-27T00:27:06.703Z,92.010498
2022-09-27T00:28:16.371Z,92.315674
2022-09-27T00:29:26.075Z,92.462158
2022-09-27T00:30:35.758Z,92.663574
2022-09-27T00:31:44.452Z,92.767334
2022-09-27T00:32:53.127Z,92.871094
2022-09-27T00:34:02.809Z,92.871094
2022-09-27T00:35:12.489Z,92.871094
2022-09-27T00:36:21.163Z,92.871094
2022-09-27T00:37:29.860Z,93.481445
2022-09-27T00:38:38.537Z,93.585205
2022-09-27T00:39:48.200Z,93.786621
2022-09-27T00:40:57.966Z,94.299316
2022-09-27T00:42:07.610Z,94.403076
2022-09-27T00:43:16.314Z,94.812012
2022-09-27T00:44:26.000Z,95.117188
2022-09-27T00:45:33.668Z,95.471191
2022-09-27T00:46:43.441Z,95.776367
2022-09-27T00:47:52.020Z,96.185303
2022-09-27T00:49:00.835Z,96.447754
2022-09-27T00:50:10.511Z,96.856689
2022-09-27T00:51:18.169Z,97.369385
2022-09-27T00:52:25.819Z,97.674561
2022-09-27T00:53:35.484Z,97.979736
2022-09-27T00:54:44.165Z,97.979736
2022-09-27T00:55:51.850Z,97.979736
2022-09-27T00:57:00.542Z,97.88208
2022-09-27T00:58:09.203Z,97.979736
2022-09-27T00:59:18.858Z,98.132324
2022-09-27T01:00:27.577Z,98.394775
2022-09-27T01:01:35.283Z,98.699951
2022-09-27T01:02:44.992Z,98.742676
2022-09-27T01:03:53.588Z,97.924805
2022-09-27T01:05:03.243Z,97.412109
2022-09-27T01:06:11.972Z,97.515869
2022-09-27T01:07:20.651Z,97.821045
2022-09-27T01:08:30.317Z,98.4375
2022-09-27T01:09:38.978Z,98.742676
2022-09-27T01:10:46.633Z,99.255371
2022-09-27T01:11:56.475Z,99.359131
2022-09-27T01:13:05.187Z,99.560547
2022-09-27T01:14:14.829Z,99.09668
2022-09-27T01:15:24.615Z,98.99292
2022-09-27T01:16:33.231Z,99.407959
2022-09-27T01:17:42.902Z,99.609375
2022-09-27T01:18:51.602Z,99.713135
2022-09-27T01:19:59.279Z,99.713135
2022-09-27T01:21:09.973Z,99.993896
2022-09-27T01:22:18.636Z,99.993896
2022-09-27T01:23:27.341Z,99.993896
2022-09-27T01:24:36.048Z,99.993896
2022-09-27T01:25:45.713Z,99.993896
2022-09-27T01:26:55.405Z,99.993896
2022-09-27T01:28:03.052Z,99.993896
2022-09-27T01:29:13.848Z,99.993896
2022-09-27T01:30:23.486Z,99.993896
2022-09-27T01:31:33.166Z,99.993896
2022-09-27T01:32:42.799Z,99.993896
2022-09-27T01:33:51.498Z,99.993896
2022-09-27T01:35:01.183Z,99.993896
2022-09-27T01:36:10.878Z,99.993896
2022-09-27T01:37:18.539Z,99.993896
2022-09-27T01:38:26.259Z,99.993896
2022-09-27T01:39:35.928Z,99.993896
2022-09-27T01:40:45.818Z,99.993896
2022-09-27T01:41:54.285Z,99.993896
2022-09-27T01:43:02.939Z,99.993896
2022-09-27T01:44:11.588Z,99.993896
2022-09-27T01:45:21.274Z,99.993896
2022-09-27T01:46:30.978Z,99.993896
2022-09-27T01:47:39.686Z,99.993896
2022-09-27T01:48:49.352Z,99.993896
2022-09-27T01:49:59.020Z,99.993896
2022-09-27T01:51:07.712Z,99.993896
2022-09-27T01:52:16.532Z,99.993896
2022-09-27T01:53:26.198Z,99.993896
2022-09-27T01:54:35.877Z,99.993896
2022-09-27T01:55:43.573Z,99.993896
2022-09-27T01:56:51.287Z,99.993896
2022-09-27T01:58:01.000Z,99.993896
2022-09-27T01:59:10.715Z,99.993896
2022-09-27T02:00:20.394Z,99.993896
2022-09-27T02:01:29.236Z,99.993896
2022-09-27T02:02:37.854Z,99.993896
2022-09-27T02:03:47.505Z,99.993896
2022-09-27T02:04:56.173Z,99.993896
2022-09-27T02:06:04.852Z,99.993896
2022-09-27T02:07:14.550Z,99.993896
2022-09-27T02:08:24.204Z,99.993896
2022-09-27T02:09:32.917Z,99.993896
2022-09-27T02:10:42.658Z,99.993896
2022-09-27T02:11:56.029Z,99.993896
2022-09-27T02:13:01.993Z,99.993896
2022-09-27T02:14:09.681Z,99.993896
2022-09-27T02:15:18.464Z,99.993896
2022-09-27T02:16:28.171Z,99.993896
2022-09-27T02:17:37.910Z,99.993896
2022-09-27T02:18:46.566Z,99.993896
2022-09-27T02:19:55.270Z,99.993896
2022-09-27T02:21:05.018Z,99.993896
2022-09-27T02:22:14.688Z,99.993896
2022-09-27T02:23:23.375Z,99.993896
2022-09-27T02:24:32.064Z,99.993896
2022-09-27T02:25:41.760Z,99.993896
2022-09-27T02:26:50.440Z,99.993896
2022-09-27T02:28:00.103Z,99.993896
2022-09-27T02:29:09.846Z,99.993896
2022-09-27T02:30:18.440Z,99.993896
2022-09-27T02:31:26.183Z,99.993896
2022-09-27T02:32:35.822Z,99.993896
2022-09-27T02:33:44.494Z,99.993896
2022-09-27T02:34:54.165Z,99.993896
2022-09-27T02:36:03.849Z,99.993896
2022-09-27T02:37:13.523Z,99.993896
2022-09-27T02:38:23.245Z,99.993896
2022-09-27T02:39:30.944Z,99.993896
2022-09-27T02:40:40.671Z,99.993896
2022-09-27T02:41:50.318Z,99.993896
2022-09-27T02:42:58.979Z,99.993896
2022-09-27T02:44:06.686Z,99.993896
2022-09-27T02:45:16.351Z,99.993896
2022-09-27T02:46:25.057Z,99.993896
2022-09-27T02:47:34.711Z,99.993896
2022-09-27T02:48:44.392Z,99.993896
2022-09-27T02:49:52.132Z,99.993896
2022-09-27T02:51:00.891Z,99.993896
2022-09-27T02:52:10.620Z,99.993896
2022-09-27T02:53:20.346Z,99.993896
2022-09-27T02:54:29.023Z,99.993896
2022-09-27T02:55:38.834Z,99.993896
2022-09-27T02:56:48.529Z,99.993896
2022-09-27T02:57:56.264Z,99.993896
2022-09-27T02:59:05.077Z,99.993896
2022-09-27T03:00:14.776Z,99.993896
2022-09-27T03:01:23.530Z,99.993896
2022-09-27T03:02:32.215Z,99.993896
2022-09-27T03:03:40.846Z,99.993896
2022-09-27T03:04:50.493Z,99.993896
2022-09-27T03:06:00.209Z,99.993896
2022-09-27T03:07:09.862Z,99.993896
2022-09-27T03:08:18.512Z,99.993896
2022-09-27T03:09:28.202Z,99.993896
2022-09-27T03:10:37.879Z,99.993896
2022-09-27T03:11:45.541Z,99.993896
2022-09-27T03:12:54.237Z,99.993896
2022-09-27T03:14:10.583Z,99.993896
2022-09-27T03:15:14.561Z,99.993896
2022-09-27T03:16:22.359Z,99.993896
2022-09-27T03:17:32.074Z,99.993896
2022-09-27T03:18:41.932Z,99.993896
2022-09-27T03:19:50.599Z,99.993896
2022-09-27T03:21:00.315Z,99.993896
2022-09-27T03:22:09.048Z,99.993896
2022-09-27T03:23:17.671Z,99.993896
2022-09-27T03:24:27.364Z,99.993896
2022-09-27T03:25:36.032Z,99.993896
2022-09-27T03:26:44.724Z,99.993896
2022-09-27T03:27:54.407Z,99.993896
2022-09-27T03:29:02.139Z,99.993896
2022-09-27T03:30:10.941Z,99.993896
2022-09-27T03:31:20.703Z,99.993896
2022-09-27T03:32:30.340Z,99.993896
2022-09-27T03:33:40.005Z,99.993896
2022-09-27T03:34:47.676Z,99.993896
2022-09-27T03:35:56.364Z,99.993896
2022-09-27T03:37:06.066Z,99.993896
2022-09-27T03:38:15.737Z,99.993896
2022-09-27T03:39:25.371Z,99.993896
2022-09-27T03:40:35.246Z,99.993896
2022-09-27T03:41:43.845Z,99.993896
2022-09-27T03:42:53.501Z,99.993896
2022-09-27T03:44:01.175Z,99.993896
2022-09-27T03:45:08.858Z,99.993896
2022-09-27T03:46:18.633Z,99.993896
2022-09-27T03:47:27.229Z,99.993896
2022-09-27T03:48:35.862Z,99.993896
2022-09-27T03:49:44.542Z,99.993896
2022-09-27T03:50:54.269Z,99.993896
2022-09-27T03:52:03.972Z,99.993896
2022-09-27T03:53:12.657Z,99.993896
2022-09-27T03:54:22.370Z,99.993896
2022-09-27T03:55:32.015Z,99.993896
2022-09-27T03:56:40.678Z,99.993896
2022-09-27T03:57:49.368Z,99.993896
2022-09-27T03:58:59.182Z,99.993896
2022-09-27T04:00:08.881Z,99.993896
2022-09-27T04:01:18.608Z,99.993896
2022-09-27T04:02:26.337Z,99.993896
2022-09-27T04:03:33.931Z,99.993896
2022-09-27T04:04:43.663Z,99.993896
2022-09-27T04:05:52.354Z,99.993896
2022-09-27T04:07:01.015Z,99.993896
2022-09-27T04:08:09.702Z,99.993896
2022-09-27T04:09:18.480Z,99.993896
2022-09-27T04:10:28.240Z,99.993896
2022-09-27T04:11:37.872Z,99.993896
2022-09-27T04:12:46.550Z,99.993896
2022-09-27T04:13:56.260Z,99.993896
2022-09-27T04:15:06.005Z,99.993896
2022-09-27T04:16:14.723Z,99.993896
2022-09-27T04:17:24.393Z,99.993896
2022-09-27T04:18:34.048Z,99.993896
2022-09-27T04:19:43.753Z,99.993896
2022-09-27T04:20:52.437Z,99.993896
2022-09-27T04:22:00.174Z,99.993896
2022-09-27T04:23:09.838Z,99.993896
2022-09-27T04:24:19.572Z,99.993896
2022-09-27T04:25:28.416Z,99.993896
2022-09-27T04:26:37.122Z,99.993896
2022-09-27T04:27:46.842Z,99.993896
2022-09-27T04:28:56.509Z,99.993896
2022-09-27T04:30:06.211Z,99.993896
2022-09-27T04:31:15.012Z,99.993896
2022-09-27T04:32:23.607Z,99.993896
2022-09-27T04:33:32.319Z,99.993896
2022-09-27T04:34:45.710Z,99.993896
2022-09-27T04:35:51.719Z,99.993896
2022-09-27T04:37:00.358Z,99.993896
2022-09-27T04:38:08.018Z,99.993896
2022-09-27T04:39:17.844Z,99.993896
2022-09-27T04:40:26.372Z,99.993896
2022-09-27T04:41:36.469Z,99.993896
2022-09-27T04:42:45.192Z,99.993896
2022-09-27T04:43:58.850Z,99.993896
2022-09-27T04:45:04.888Z,99.993896
2022-09-27T04:46:13.599Z,99.993896
2022-09-27T04:47:20.256Z,99.993896
2022-09-27T04:48:29.908Z,99.993896
2022-09-27T04:49:39.598Z,99.993896
2022-09-27T04:50:48.344Z,99.993896
2022-09-27T04:51:57.014Z,99.993896
2022-09-27T04:53:06.723Z,99.993896
2022-09-27T04:54:16.420Z,99.993896
2022-09-27T04:55:24.075Z,99.993896
2022-09-27T04:56:32.874Z,99.993896
2022-09-27T04:57:42.538Z,99.993896
2022-09-27T04:58:51.264Z,99.993896
2022-09-27T04:59:59.914Z,99.993896
2022-09-27T05:01:09.625Z,99.993896
2022-09-27T05:02:18.271Z,99.993896
2022-09-27T05:03:27.888Z,99.993896
2022-09-27T05:04:35.536Z,99.993896
2022-09-27T05:05:43.257Z,99.993896
2022-09-27T05:06:56.991Z,99.993896
2022-09-27T05:08:02.654Z,99.993896
2022-09-27T05:09:11.385Z,99.993896
2022-09-27T05:10:20.024Z,99.993896
2022-09-27T05:11:29.708Z,99.993896
2022-09-27T05:12:40.375Z,99.993896
2022-09-27T05:13:48.074Z,99.993896
2022-09-27T05:14:55.856Z,99.993896
2022-09-27T05:16:05.408Z,99.993896
2022-09-27T05:17:14.081Z,99.993896
2022-09-27T05:18:22.772Z,99.993896
2022-09-27T05:19:32.585Z,99.993896
2022-09-27T05:20:42.243Z,99.993896
2022-09-27T05:21:51.938Z,99.993896
2022-09-27T05:23:00.612Z,99.993896
2022-09-27T05:24:09.336Z,99.993896
2022-09-27T05:25:19.044Z,99.993896
2022-09-27T05:26:28.748Z,99.993896
2022-09-27T05:27:37.420Z,99.993896
2022-09-27T05:28:47.137Z,99.993896
2022-09-27T05:29:55.836Z,99.993896
2022-09-27T05:31:05.600Z,99.993896
2022-09-27T05:32:15.220Z,99.993896
2022-09-27T05:33:23.915Z,99.993896
2022-09-27T05:34:33.608Z,99.993896
2022-09-27T05:35:45.289Z,99.993896
2022-09-27T05:36:51.962Z,99.993896
2022-09-27T05:38:00.658Z,99.993896
2022-09-27T05:39:10.424Z,99.993896
2022-09-27T05:40:36.999Z,99.993896
2022-09-27T05:41:30.785Z,99.993896
2022-09-27T05:42:38.358Z,99.993896
2022-09-27T05:43:48.052Z,99.993896
2022-09-27T05:44:57.745Z,99.993896
2022-09-27T05:46:06.527Z,99.993896
2022-09-27T05:47:15.154Z,99.993896
2022-09-27T05:48:24.833Z,99.993896
2022-09-27T05:49:34.672Z,99.993896
2022-09-27T05:50:43.349Z,99.993896
2022-09-27T05:51:51.043Z,99.993896
2022-09-27T05:53:00.820Z,99.993896
2022-09-27T05:54:09.646Z,99.993896
2022-09-27T05:55:18.315Z,99.993896
2022-09-27T05:56:27.005Z,99.993896
2022-09-27T05:57:36.765Z,99.993896
2022-09-27T05:58:46.482Z,99.993896
2022-09-27T05:59:54.246Z,99.993896
2022-09-27T06:01:02.978Z,99.993896
2022-09-27T06:02:12.751Z,99.993896
2022-09-27T06:03:21.337Z,99.993896
2022-09-27T06:04:31.012Z,99.963379
2022-09-27T06:05:40.806Z,99.963379
2022-09-27T06:06:50.485Z,99.963379
2022-09-27T06:08:00.237Z,99.993896
2022-09-27T06:09:08.893Z,99.993896
2022-09-27T06:10:16.566Z,99.993896
2022-09-27T06:11:26.376Z,99.963379
2022-09-27T06:12:36.065Z,99.658203
2022-09-27T06:13:45.831Z,99.963379
2022-09-27T06:14:54.530Z,99.859619
2022-09-27T06:16:03.205Z,99.993896
2022-09-27T06:17:12.925Z,99.993896
2022-09-27T06:18:22.611Z,99.993896
2022-09-27T06:19:31.345Z,99.993896
2022-09-27T06:20:41.011Z,99.993896
2022-09-27T06:21:49.663Z,99.993896
2022-09-27T06:22:59.355Z,99.993896
2022-09-27T06:24:09.035Z,99.993896
2022-09-27T06:25:18.767Z,99.993896
2022-09-27T06:26:28.520Z,99.993896
2022-09-27T06:27:38.350Z,99.993896
2022-09-27T06:28:48.050Z,99.993896
2022-09-27T06:29:56.769Z,99.993896
2022-09-27T06:31:05.548Z,99.993896
2022-09-27T06:32:14.169Z,99.993896
2022-09-27T06:33:23.870Z,99.993896
2022-09-27T06:34:31.619Z,99.859619
2022-09-27T06:35:39.313Z,99.859619
2022-09-27T06:36:50.702Z,99.963379
2022-09-27T06:37:57.634Z,99.755859
2022-09-27T06:39:06.334Z,99.658203
2022-09-27T06:40:16.063Z,99.249268
2022-09-27T06:41:25.723Z,99.249268
2022-09-27T06:42:35.408Z,99.450684
2022-09-27T06:43:44.061Z,99.145508
2022-09-27T06:44:53.763Z,98.425293
2022-09-27T06:46:03.477Z,98.632812
2022-09-27T06:47:12.126Z,98.736572
2022-09-27T06:48:21.824Z,98.632812
2022-09-27T06:49:31.545Z,98.834229
2022-09-27T06:50:40.211Z,98.937988
2022-09-27T06:51:49.954Z,98.529053
2022-09-27T06:52:59.628Z,98.223877
2022-09-27T06:54:09.346Z,98.223877
2022-09-27T06:55:19.032Z,97.973633
2022-09-27T06:56:27.703Z,98.382568
2022-09-27T06:57:36.385Z,97.460938
2022-09-27T06:58:45.080Z,96.948242
2022-09-27T06:59:53.800Z,96.697998
2022-09-27T07:01:03.535Z,96.490479
2022-09-27T07:02:11.237Z,96.142578
2022-09-27T07:03:18.837Z,95.428467
2022-09-27T07:04:28.508Z,95.117188
2022-09-27T07:05:37.233Z,94.915771
2022-09-27T07:06:46.951Z,94.769287
2022-09-27T07:07:56.703Z,94.506836
2022-09-27T07:09:06.493Z,93.890381
2022-09-27T07:10:16.192Z,93.994141
2022-09-27T07:11:23.902Z,93.890381
2022-09-27T07:12:33.572Z,93.994141
2022-09-27T07:13:43.247Z,94.195557
2022-09-27T07:14:51.964Z,93.07251
2022-09-27T07:16:00.672Z,93.994141
2022-09-27T07:17:09.353Z,93.688965
2022-09-27T07:18:18.036Z,93.890381
2022-09-27T07:19:27.745Z,93.237305
2022-09-27T07:20:36.404Z,92.724609
2022-09-27T07:21:44.243Z,92.724609
2022-09-27T07:22:53.922Z,92.169189
2022-09-27T07:24:02.673Z,91.96167
2022-09-27T07:25:12.308Z,91.656494
2022-09-27T07:26:21.134Z,90.576172
2022-09-27T07:27:30.911Z,91.290283
2022-09-27T07:28:41.709Z,91.802979
2022-09-27T07:29:51.360Z,91.802979
2022-09-27T07:30:59.115Z,91.601562
2022-09-27T07:32:08.795Z,91.497803
2022-09-27T07:33:17.482Z,91.601562
2022-09-27T07:34:26.235Z,91.906738
2022-09-27T07:35:34.910Z,92.578125
2022-09-27T07:36:43.552Z,92.272949
2022-09-27T07:37:53.293Z,91.96167
2022-09-27T07:39:00.965Z,91.96167
2022-09-27T07:40:09.676Z,91.96167
2022-09-27T07:41:18.361Z,91.96167
2022-09-27T07:42:27.083Z,92.474365
2022-09-27T07:43:36.895Z,91.656494
2022-09-27T07:44:46.651Z,91.760254
2022-09-27T07:45:56.361Z,91.96167
2022-09-27T07:47:06.065Z,91.516113
2022-09-27T07:48:13.929Z,91.204834
2022-09-27T07:49:22.910Z,91.674805
2022-09-27T07:50:32.690Z,90.655518
2022-09-27T07:51:41.385Z,89.532471
2022-09-27T07:52:51.125Z,90.039062
2022-09-27T07:54:03.238Z,90.350342
2022-09-27T07:55:11.694Z,89.776611
2022-09-27T07:56:21.491Z,90.350342
2022-09-27T07:57:30.215Z,90.289307
2022-09-27T07:58:38.907Z,90.081787
2022-09-27T07:59:48.604Z,90.386963
2022-09-27T08:00:58.378Z,90.386963
2022-09-27T08:02:08.036Z,91.308594
2022-09-27T08:03:16.734Z,91.204834
2022-09-27T08:04:26.414Z,90.698242
2022-09-27T08:05:36.110Z,90.740967
2022-09-27T08:06:43.819Z,90.533447
2022-09-27T08:07:53.531Z,91.107178
2022-09-27T08:09:03.253Z,90.490723
2022-09-27T08:10:12.029Z,90.899658
2022-09-27T08:11:20.826Z,89.978027
2022-09-27T08:12:30.571Z,89.672852
2022-09-27T08:13:39.287Z,89.263916
2022-09-27T08:14:49.097Z,88.85498
2022-09-27T08:15:57.818Z,86.816406
2022-09-27T08:17:07.549Z,86.51123
2022-09-27T08:18:17.326Z,87.530518
2022-09-27T08:19:26.027Z,88.757324
2022-09-27T08:20:34.735Z,89.978027
2022-09-27T08:21:44.588Z,92.883301
2022-09-27T08:22:53.319Z,94.464111
2022-09-27T08:24:01.067Z,95.166016
2022-09-27T08:25:10.813Z,95.001221
2022-09-27T08:26:20.522Z,96.582031
2022-09-27T08:27:29.298Z,96.014404
2022-09-27T08:28:38.978Z,96.264648
2022-09-27T08:29:48.826Z,97.332764
2022-09-27T08:30:58.544Z,97.174072
2022-09-27T08:32:06.219Z,97.894287
2022-09-27T08:33:13.922Z,98.449707
2022-09-27T08:34:23.709Z,98.553467
2022-09-27T08:35:32.503Z,98.657227
2022-09-27T08:36:42.247Z,99.066162
2022-09-27T08:37:51.981Z,99.273682
2022-09-27T08:39:01.740Z,99.786377
2022-09-27T08:40:11.509Z,99.786377
2022-09-27T08:41:21.276Z,99.890137
2022-09-27T08:42:28.968Z,99.987793
2022-09-27T08:43:38.691Z,99.993896
2022-09-27T08:44:48.365Z,99.993896
2022-09-27T08:45:58.152Z,99.993896
2022-09-27T08:47:07.782Z,99.993896
2022-09-27T08:48:17.472Z,99.993896
2022-09-27T08:49:27.194Z,99.993896
2022-09-27T08:50:39.915Z,99.993896
2022-09-27T08:51:46.782Z,99.993896
2022-09-27T08:52:56.479Z,99.993896
2022-09-27T08:54:05.157Z,99.993896
2022-09-27T08:55:14.860Z,99.993896
2022-09-27T08:56:24.569Z,99.993896
2022-09-27T08:57:33.285Z,99.993896
2022-09-27T08:58:43.047Z,99.993896
2022-09-27T08:59:52.789Z,99.993896
2022-09-27T09:01:01.519Z,99.993896
2022-09-27T09:02:11.229Z,99.993896
2022-09-27T09:03:19.905Z,99.79248
2022-09-27T09:04:27.605Z,99.853516
2022-09-27T09:05:36.297Z,99.749756
2022-09-27T09:06:45.083Z,99.993896
2022-09-27T09:07:54.781Z,98.266602
2022-09-27T09:09:03.485Z,97.912598
2022-09-27T09:10:13.196Z,97.912598
2022-09-27T09:11:23.018Z,96.990967
2022-09-27T09:12:31.633Z,96.276855
2022-09-27T09:13:41.368Z,95.806885
2022-09-27T09:14:51.125Z,96.478271
2022-09-27T09:16:01.059Z,95.458984
2022-09-27T09:17:10.822Z,95.556641
2022-09-27T09:18:20.589Z,95.147705
2022-09-27T09:19:29.351Z,95.6604
2022-09-27T09:20:39.180Z,96.276855
2022-09-27T09:21:47.873Z,96.435547
2022-09-27T09:22:57.593Z,94.445801
2022-09-27T09:24:05.321Z,93.62793
2022-09-27T09:25:14.021Z,93.786621
2022-09-27T09:26:23.713Z,91.699219
2022-09-27T09:27:32.467Z,90.472412
2022-09-27T09:28:40.217Z,91.290283
2022-09-27T09:29:49.944Z,91.247559
2022-09-27T09:30:58.680Z,89.776611
2022-09-27T09:32:08.338Z,88.287354
2022-09-27T09:33:18.041Z,89.611816
2022-09-27T09:34:26.786Z,88.348389
2022-09-27T09:35:36.474Z,89.672852
2022-09-27T09:36:44.165Z,88.104248
2022-09-27T09:37:52.916Z,89.141846
2022-09-27T09:39:03.771Z,87.243652
2022-09-27T09:40:13.602Z,87.854004
2022-09-27T09:41:22.226Z,87.469482
2022-09-27T09:42:32.082Z,85.528564
2022-09-27T09:43:40.775Z,85.430908
2022-09-27T09:44:50.513Z,84.655762
2022-09-27T09:45:58.265Z,84.899902
2022-09-27T09:47:06.898Z,85.5896
2022-09-27T09:48:16.552Z,86.407471
2022-09-27T09:49:25.225Z,87.530518
2022-09-27T09:50:34.951Z,87.017822
2022-09-27T09:51:44.655Z,86.816406
2022-09-27T09:52:53.337Z,86.956787
2022-09-27T09:54:03.086Z,88.348389
2022-09-27T09:55:10.813Z,87.835693
2022-09-27T09:56:19.570Z,86.712646
2022-09-27T09:57:29.342Z,86.853027
2022-09-27T09:58:38.019Z,86.444092
2022-09-27T09:59:47.762Z,87.060547
2022-09-27T10:00:57.522Z,86.181641
2022-09-27T10:02:07.302Z,86.590576
2022-09-27T10:03:17.053Z,86.2854
2022-09-27T10:04:26.776Z,86.425781
2022-09-27T10:05:36.496Z,87.036133
2022-09-27T10:06:46.240Z,87.957764
2022-09-27T10:07:54.953Z,87.243652
2022-09-27T10:09:04.674Z,87.347412
2022-09-27T10:10:15.404Z,87.756348
2022-09-27T10:11:25.117Z,87.243652
2022-09-27T10:12:34.846Z,88.531494
2022-09-27T10:13:42.558Z,87.609863
2022-09-27T10:14:50.374Z,86.938477
2022-09-27T10:16:00.140Z,87.548828
2022-09-27T10:17:09.796Z,87.854004
2022-09-27T10:18:18.451Z,88.983154
2022-09-27T10:19:28.239Z,89.904785
2022-09-27T10:20:37.906Z,89.904785
2022-09-27T10:21:46.626Z,90.618896
2022-09-27T10:22:56.370Z,90.515137
2022-09-27T10:24:06.052Z,91.070557
2022-09-27T10:25:16.845Z,91.271973
2022-09-27T10:26:25.578Z,91.992188
2022-09-27T10:27:35.254Z,92.810059
2022-09-27T10:28:44.949Z,93.115234
2022-09-27T10:29:53.705Z,94.445801
2022-09-27T10:31:03.434Z,94.799805
2022-09-27T10:32:13.119Z,95.983887
2022-09-27T10:33:22.813Z,95.819092
2022-09-27T10:34:31.546Z,96.331787
2022-09-27T10:35:41.318Z,96.844482
2022-09-27T10:36:50.171Z,97.149658
2022-09-27T10:37:59.838Z,97.149658
2022-09-27T10:39:07.556Z,96.643066
2022-09-27T10:40:15.269Z,96.740723
2022-09-27T10:41:24.973Z,96.435547
2022-09-27T10:42:34.721Z,96.643066
2022-09-27T10:43:44.491Z,96.539307
2022-09-27T10:44:53.213Z,96.490479
2022-09-27T10:46:01.937Z,94.854736
2022-09-27T10:47:11.607Z,94.244385
2022-09-27T10:48:20.376Z,94.445801
2022-09-27T10:49:30.133Z,95.471191
2022-09-27T10:50:50.079Z,94.854736
2022-09-27T10:51:50.500Z,95.721436
2022-09-27T10:52:59.177Z,98.120117
2022-09-27T10:54:09.002Z,99.188232
2022-09-27T10:55:17.658Z,99.804688
2022-09-27T10:56:27.390Z,99.993896
2022-09-27T10:57:35.046Z,99.993896
2022-09-27T10:58:44.784Z,99.993896
2022-09-27T10:59:54.503Z,99.993896
2022-09-27T11:01:03.264Z,99.993896
2022-09-27T11:02:12.905Z,99.993896
2022-09-27T11:03:21.703Z,99.993896
2022-09-27T11:04:30.364Z,99.993896
2022-09-27T11:05:39.101Z,99.993896
2022-09-27T11:06:46.906Z,99.993896
2022-09-27T11:07:55.581Z,99.993896
2022-09-27T11:09:05.313Z,99.993896
2022-09-27T11:10:14.003Z,99.993896
2022-09-27T11:11:23.747Z,99.993896
2022-09-27T11:12:33.438Z,99.993896
2022-09-27T11:13:42.106Z,99.993896
2022-09-27T11:14:51.831Z,99.993896
2022-09-27T11:16:00.581Z,99.993896
2022-09-27T11:17:08.316Z,99.993896
2022-09-27T11:18:18.026Z,99.993896
2022-09-27T11:19:27.797Z,99.993896
2022-09-27T11:20:35.551Z,99.523926
2022-09-27T11:21:44.259Z,98.504639
2022-09-27T11:22:54.315Z,97.381592
2022-09-27T11:24:04.861Z,96.563721
2022-09-27T11:25:13.540Z,96.112061
2022-09-27T11:26:21.292Z,94.476318
2022-09-27T11:27:31.037Z,94.63501
2022-09-27T11:28:39.800Z,95.147705
2022-09-27T11:29:48.529Z,94.268799
2022-09-27T11:30:58.226Z,95.904541
2022-09-27T11:32:06.938Z,95.19043
2022-09-27T11:33:15.656Z,92.883301
2022-09-27T11:34:24.435Z,92.926025
2022-09-27T11:35:33.111Z,91.845703
2022-09-27T11:36:42.946Z,92.462158
2022-09-27T11:37:51.653Z,91.271973
2022-09-27T11:39:02.807Z,91.784668
2022-09-27T11:40:11.224Z,91.375732
2022-09-27T11:41:20.902Z,92.138672
2022-09-27T11:42:30.682Z,93.365479
2022-09-27T11:43:40.339Z,91.009521
2022-09-27T11:44:53.331Z,91.931152
2022-09-27T11:46:16.478Z,93.157959
2022-09-27T11:47:11.629Z,92.956543
2022-09-27T11:48:20.335Z,93.060303
2022-09-27T11:49:29.990Z,93.261719
2022-09-27T11:50:38.673Z,92.297363
2022-09-27T11:51:48.677Z,91.540527
2022-09-27T11:52:57.355Z,91.003418
2022-09-27T11:54:06.067Z,89.996338
2022-09-27T11:55:15.709Z,87.469482
2022-09-27T11:56:25.412Z,86.61499
2022-09-27T11:57:35.119Z,84.368896
2022-09-27T11:58:43.823Z,85.223389
2022-09-27T11:59:52.510Z,86.120605
2022-09-27T12:01:02.199Z,86.834717
2022-09-27T12:02:10.970Z,86.547852
2022-09-27T12:03:19.580Z,85.162354
2022-09-27T12:04:30.306Z,87.408447
2022-09-27T12:05:38.988Z,88.531494
2022-09-27T12:06:48.690Z,87.042236
2022-09-27T12:07:58.462Z,86.529541
2022-09-27T12:09:07.204Z,86.572266
2022-09-27T12:10:17.148Z,87.835693
2022-09-27T12:11:26.645Z,87.878418
2022-09-27T12:12:35.344Z,88.696289
2022-09-27T12:13:45.048Z,89.4104
2022-09-27T12:14:53.721Z,88.83667
2022-09-27T12:16:04.485Z,90.063477
2022-09-27T12:17:13.172Z,90.270996
2022-09-27T12:18:21.876Z,89.453125
2022-09-27T12:19:29.571Z,89.147949
2022-09-27T12:20:39.463Z,89.96582
2022-09-27T12:21:49.147Z,90.576172
2022-09-27T12:23:00.118Z,90.332031
2022-09-27T12:24:08.489Z,88.85498
2022-09-27T12:25:20.700Z,87.634277
2022-09-27T12:26:28.254Z,88.470459
2022-09-27T12:27:37.934Z,86.694336
2022-09-27T12:28:46.634Z,85.632324
2022-09-27T12:29:56.328Z,85.998535
2022-09-27T12:31:27.826Z,84.698486
2022-09-27T12:32:15.683Z,85.638428
2022-09-27T12:33:24.317Z,84.47876
2022-09-27T12:34:33.015Z,83.703613
2022-09-27T12:35:42.726Z,83.886719
2022-09-27T12:36:51.413Z,85.552979
2022-09-27T12:37:59.114Z,84.063721
2022-09-27T12:39:08.794Z,84.674072
2022-09-27T12:40:18.519Z,86.816406
2022-09-27T12:41:28.214Z,85.900879
2022-09-27T12:42:36.901Z,86.303711
2022-09-27T12:43:48.779Z,85.528564
2022-09-27T12:44:56.242Z,86.755371
2022-09-27T12:46:04.993Z,85.614014
2022-09-27T12:47:13.633Z,82.70874
2022-09-27T12:48:23.301Z,78.90625
2022-09-27T12:49:31.976Z,78.527832
2022-09-27T12:50:41.838Z,76.77002
2022-09-27T12:51:50.505Z,75.311279
2022-09-27T12:53:00.201Z,74.267578
2022-09-27T12:54:09.870Z,73.693848
2022-09-27T12:55:19.543Z,72.241211
2022-09-27T12:56:27.216Z,72.821045
2022-09-27T12:57:36.913Z,74.511719
2022-09-27T12:58:45.730Z,74.54834
2022-09-27T12:59:55.385Z,75.634766
2022-09-27T13:01:04.178Z,76.342773
2022-09-27T13:02:13.905Z,76.245117
2022-09-27T13:03:26.221Z,77.197266
2022-09-27T13:04:33.122Z,78.24707
2022-09-27T13:05:41.791Z,77.563477
2022-09-27T13:06:51.490Z,75.695801
2022-09-27T13:08:01.194Z,72.98584
2022-09-27T13:09:09.838Z,71.66748
2022-09-27T13:10:19.531Z,72.753906